Time;durP1;ratioP1;P1;durP2;ratioP2;P2;SDS_P1;SDS_P2;PMS_P1;PMS_P2;Temp;Humidity;BMP_temperature;BMP_pressure;BME280_temperature;BME280_humidity;BME280_pressure;Samples;Min_cycle;Max_cycle;Signal;HPM_P1;HPM_P2
2022/03/12 05:02:31;;;;;;;14.95;6.82;;;6.40;99.90;;;;;;6334361;22;20018;-81
2022/03/12 05:04:57;;;;;;;11.43;6.72;;;6.40;99.90;;;;;;6287721;22;20018;-81
2022/03/12 05:07:26;;;;;;;14.13;7.20;;;6.40;99.90;;;;;;6312578;22;20344;-83
2022/03/12 05:09:55;;;;;;;12.43;7.22;;;6.40;99.90;;;;;;6312596;22;20081;-82
2022/03/12 05:12:23;;;;;;;11.80;7.50;;;6.30;99.90;;;;;;6286972;22;20049;-81
2022/03/12 05:14:51;;;;;;;13.98;7.18;;;6.30;99.90;;;;;;6286511;22;20131;-81
2022/03/12 05:17:18;;;;;;;12.57;7.68;;;6.40;99.90;;;;;;6287073;22;20039;-83
2022/03/12 05:19:54;;;;;;;12.40;6.38;;;6.30;99.90;;;;;;6314598;22;20011;-84
2022/03/12 05:22:20;;;;;;;11.80;6.88;;;6.30;99.90;;;;;;6339738;22;20015;-83
2022/03/12 05:24:46;;;;;;;11.75;6.80;;;6.40;99.90;;;;;;6340286;22;20011;-83
2022/03/12 05:27:14;;;;;;;17.25;7.32;;;6.40;99.90;;;;;;6313797;22;20014;-81
2022/03/12 05:29:41;;;;;;;14.23;7.00;;;6.40;99.90;;;;;;6335775;22;20089;-85
2022/03/12 05:32:12;;;;;;;13.85;7.32;;;6.40;99.90;;;;;;6313684;22;20046;-84
2022/03/12 05:34:42;;;;;;;13.70;7.00;;;6.40;99.90;;;;;;6314327;22;20064;-85
2022/03/12 05:37:10;;;;;;;14.07;7.32;;;6.50;99.90;;;;;;6313823;22;20348;-82
2022/03/12 05:39:37;;;;;;;17.05;7.28;;;6.50;99.90;;;;;;6340454;22;20325;-85
2022/03/12 05:42:05;;;;;;;12.57;6.95;;;6.50;99.90;;;;;;6287689;22;20042;-84
2022/03/12 05:44:34;;;;;;;12.73;7.00;;;6.50;99.90;;;;;;6341689;22;20011;-82
2022/03/12 05:47:03;;;;;;;13.27;6.95;;;6.60;99.90;;;;;;6341689;22;20007;-81
2022/03/12 05:49:30;;;;;;;14.95;7.18;;;6.60;99.90;;;;;;6312967;22;20042;-79
2022/03/12 05:52:09;;;;;;;14.95;7.30;;;6.60;99.90;;;;;;6317305;22;20022;-83
2022/03/12 05:54:35;;;;;;;13.50;6.85;;;6.60;99.90;;;;;;6313844;22;20011;-82
2022/03/12 05:57:01;;;;;;;14.68;7.50;;;6.70;99.90;;;;;;6313583;22;20010;-82
2022/03/12 05:59:29;;;;;;;17.25;7.90;;;6.60;99.90;;;;;;6313712;22;20019;-83
2022/03/12 06:01:56;;;;;;;13.73;7.13;;;6.70;99.90;;;;;;6339103;22;20499;-83
2022/03/12 06:04:27;;;;;;;13.18;7.22;;;6.60;99.90;;;;;;6313605;22;20040;-82
2022/03/12 06:06:57;;;;;;;17.30;7.47;;;6.70;99.90;;;;;;6313000;22;20015;-81
2022/03/12 06:09:22;;;;;;;16.30;7.75;;;6.70;99.90;;;;;;6313551;22;20007;-82
2022/03/12 06:11:58;;;;;;;13.73;7.47;;;6.70;99.90;;;;;;6339851;22;20038;-83
2022/03/12 06:14:24;;;;;;;13.35;6.78;;;6.80;99.90;;;;;;6313089;22;20318;-85
2022/03/12 06:16:51;;;;;;;12.82;7.35;;;6.80;99.90;;;;;;6313207;22;20011;-83
2022/03/12 06:19:19;;;;;;;13.07;7.80;;;6.80;99.90;;;;;;6313052;22;20015;-81
2022/03/12 06:21:47;;;;;;;14.38;7.47;;;6.80;99.90;;;;;;6338946;22;20086;-83
2022/03/12 06:24:13;;;;;;;20.10;7.78;;;6.80;99.90;;;;;;6338778;22;20022;-83
2022/03/12 06:26:40;;;;;;;14.20;8.30;;;6.80;99.90;;;;;;6312332;22;20006;-83
2022/03/12 06:29:12;;;;;;;14.55;7.65;;;6.80;99.90;;;;;;6312155;22;20044;-83
2022/03/12 06:31:39;;;;;;;15.75;7.28;;;6.80;99.90;;;;;;6312934;22;20069;-84
2022/03/12 06:34:05;;;;;;;15.20;7.90;;;6.80;99.90;;;;;;6340337;22;20006;-82
2022/03/12 06:36:34;;;;;;;16.90;7.88;;;6.80;99.90;;;;;;6312954;22;20071;-83
2022/03/12 06:39:04;;;;;;;16.13;7.93;;;6.80;99.90;;;;;;6341066;22;20019;-81
2022/03/12 06:41:35;;;;;;;13.75;7.82;;;6.80;99.90;;;;;;6339428;22;20018;-81
2022/03/12 06:44:02;;;;;;;14.60;7.40;;;6.80;99.90;;;;;;6345236;22;20325;-80
2022/03/12 06:46:29;;;;;;;15.23;7.75;;;6.80;99.90;;;;;;6320724;22;20011;-83
2022/03/12 06:48:55;;;;;;;13.63;7.60;;;6.80;99.90;;;;;;6333350;22;20056;-85
2022/03/12 06:51:22;;;;;;;14.20;8.25;;;6.70;99.90;;;;;;6333617;22;20015;-80
2022/03/12 06:53:52;;;;;;;14.77;8.02;;;6.70;99.90;;;;;;6317735;22;20025;-82
2022/03/12 06:56:18;;;;;;;14.68;7.82;;;6.70;99.90;;;;;;6340499;22;20014;-81
2022/03/12 06:58:44;;;;;;;15.93;8.20;;;6.70;99.90;;;;;;6313193;22;20011;-81
2022/03/12 07:01:10;;;;;;;15.02;8.30;;;6.70;99.90;;;;;;6313030;22;20076;-81
2022/03/12 07:03:35;;;;;;;14.65;8.07;;;6.70;99.90;;;;;;6312625;22;20018;-84
2022/03/12 07:06:02;;;;;;;14.02;7.70;;;6.70;99.90;;;;;;6312826;22;20014;-82
2022/03/12 07:08:32;;;;;;;14.95;7.93;;;6.70;99.90;;;;;;6340273;22;20006;-82
2022/03/12 07:10:58;;;;;;;14.20;7.18;;;6.80;99.90;;;;;;6339578;22;20015;-84
2022/03/12 07:13:23;;;;;;;15.85;7.68;;;6.80;99.90;;;;;;6338268;22;20013;-77
2022/03/12 07:15:51;;;;;;;15.73;7.78;;;6.90;99.90;;;;;;6339243;22;20064;-83
2022/03/12 07:18:23;;;;;;;13.82;7.47;;;7.00;99.90;;;;;;6309196;22;20022;-82
2022/03/12 07:20:50;;;;;;;14.07;7.50;;;7.00;99.90;;;;;;6337686;22;20094;-83
2022/03/12 07:23:17;;;;;;;14.23;7.90;;;7.10;99.90;;;;;;6312385;22;20070;-81
2022/03/12 07:25:47;;;;;;;13.45;7.38;;;7.10;99.90;;;;;;6312350;22;20089;-81
2022/03/12 07:28:17;;;;;;;14.52;7.07;;;7.20;99.90;;;;;;6285958;22;20336;-82
2022/03/12 07:30:44;;;;;;;14.20;7.35;;;7.30;99.90;;;;;;6313573;22;20014;-80
2022/03/12 07:33:11;;;;;;;17.13;8.07;;;7.40;99.90;;;;;;6312560;22;20077;-83
2022/03/12 07:35:39;;;;;;;15.93;7.00;;;7.40;99.90;;;;;;6314099;22;20090;-83
2022/03/12 07:38:16;;;;;;;12.27;7.72;;;7.40;99.90;;;;;;6313675;22;20370;-81
2022/03/12 07:40:44;;;;;;;17.90;8.10;;;7.50;99.90;;;;;;6312404;22;20064;-83
2022/03/12 07:43:11;;;;;;;13.50;7.70;;;7.50;99.70;;;;;;6313373;22;20059;-76
2022/03/12 07:45:36;;;;;;;15.30;7.57;;;7.60;99.40;;;;;;6340693;22;20050;-82
2022/03/12 07:48:02;;;;;;;14.18;7.45;;;7.60;98.90;;;;;;6312586;22;20079;-84
2022/03/12 07:50:28;;;;;;;14.75;7.88;;;7.70;99.00;;;;;;6339088;22;20011;-83
2022/03/12 07:52:58;;;;;;;15.95;8.80;;;7.80;98.90;;;;;;6313980;22;20082;-82
2022/03/12 07:59:04;;;;;;;12.40;7.30;;;8.00;98.70;;;;;;6214361;23;20030;-82
2022/03/12 08:01:33;;;;;;;14.00;7.78;;;8.00;98.20;;;;;;6327959;22;20474;-83
2022/03/12 08:04:02;;;;;;;14.80;7.20;;;8.10;98.30;;;;;;6339292;22;20014;-81
2022/03/12 08:07:16;;;;;;;17.70;8.60;;;8.20;98.30;;;;;;6340127;22;20404;-82
2022/03/12 08:09:46;;;;;;;18.25;8.25;;;8.20;98.20;;;;;;6310749;22;20015;-82
2022/03/12 08:12:15;;;;;;;15.80;7.82;;;8.30;98.40;;;;;;6313357;22;20010;-84
2022/03/12 08:14:44;;;;;;;13.60;7.90;;;8.40;98.60;;;;;;6312954;22;20015;-83
2022/03/12 08:17:10;;;;;;;13.02;7.43;;;8.50;98.60;;;;;;6338544;22;20007;-81
2022/03/12 08:19:38;;;;;;;15.05;7.93;;;8.60;98.60;;;;;;6311937;22;20266;-81
2022/03/12 08:22:08;;;;;;;15.52;8.25;;;8.70;98.60;;;;;;6287305;22;20019;-82
2022/03/12 08:24:34;;;;;;;14.80;8.05;;;8.80;98.90;;;;;;6286874;22;20464;-81
2022/03/12 08:27:01;;;;;;;14.95;8.70;;;8.90;98.90;;;;;;6312561;22;20436;-82
2022/03/12 08:29:26;;;;;;;16.33;8.45;;;9.00;99.00;;;;;;6312561;22;20011;-81
2022/03/12 08:31:52;;;;;;;13.52;8.48;;;9.10;99.10;;;;;;6312357;22;20018;-82
2022/03/12 08:34:18;;;;;;;17.63;8.93;;;9.10;99.40;;;;;;6312115;22;20011;-81
2022/03/12 08:36:45;;;;;;;16.10;8.18;;;9.20;99.60;;;;;;6312263;22;20014;-84
2022/03/12 08:39:15;;;;;;;16.80;8.40;;;9.20;99.70;;;;;;6286117;22;20067;-81
2022/03/12 08:41:41;;;;;;;16.30;8.52;;;9.30;99.80;;;;;;6286153;22;20478;-81
2022/03/12 08:44:09;;;;;;;15.93;8.35;;;9.40;99.90;;;;;;6286620;22;20432;-82
2022/03/12 08:46:42;;;;;;;17.52;8.93;;;9.50;99.90;;;;;;6312961;22;20019;-81
2022/03/12 08:49:11;;;;;;;15.80;8.25;;;9.60;99.90;;;;;;6338196;22;20215;-83
2022/03/12 08:51:38;;;;;;;16.35;8.20;;;9.70;99.90;;;;;;6310501;22;20049;-80
2022/03/12 08:54:05;;;;;;;14.85;8.45;;;9.90;99.90;;;;;;6312003;22;20395;-82
2022/03/12 08:56:32;;;;;;;14.25;8.25;;;10.00;99.90;;;;;;6339200;22;20041;-81
2022/03/12 08:58:58;;;;;;;17.55;8.38;;;10.10;99.90;;;;;;6286251;22;20011;-81
2022/03/12 09:01:25;;;;;;;14.43;8.35;;;10.20;99.90;;;;;;6312594;22;20019;-83
2022/03/12 09:03:53;;;;;;;15.40;8.75;;;10.40;99.90;;;;;;6287266;22;20063;-83
2022/03/12 09:06:19;;;;;;;17.13;8.63;;;10.50;99.90;;;;;;6311460;22;20093;-83
2022/03/12 09:08:47;;;;;;;16.35;8.50;;;10.60;99.90;;;;;;6311241;22;20035;-80
2022/03/12 09:11:19;;;;;;;14.52;7.97;;;10.70;99.90;;;;;;6313411;22;20015;-81
2022/03/12 09:13:47;;;;;;;13.82;8.10;;;10.80;99.90;;;;;;6313039;22;20289;-82
2022/03/12 09:16:14;;;;;;;15.48;8.27;;;10.90;99.90;;;;;;6339585;22;20010;-79
2022/03/12 09:18:42;;;;;;;14.60;8.18;;;10.90;99.90;;;;;;6310879;22;20082;-78
2022/03/12 09:21:08;;;;;;;14.57;8.10;;;11.00;99.90;;;;;;6311057;22;20011;-81
2022/03/12 09:23:37;;;;;;;13.85;8.02;;;11.10;99.90;;;;;;6312435;22;20149;-81
2022/03/12 09:26:13;;;;;;;15.55;8.18;;;11.20;99.90;;;;;;6311946;22;20019;-81
2022/03/12 09:28:48;;;;;;;15.27;7.75;;;11.20;99.90;;;;;;6315705;22;20007;-76
2022/03/12 09:31:16;;;;;;;15.05;8.65;;;11.30;99.90;;;;;;6339365;22;20317;-81
2022/03/12 09:33:41;;;;;;;15.20;8.48;;;11.40;99.90;;;;;;6285367;22;20006;-82
2022/03/12 09:36:09;;;;;;;13.18;7.72;;;11.50;99.90;;;;;;6286060;22;20064;-82
2022/03/12 09:38:36;;;;;;;13.00;7.22;;;11.50;99.90;;;;;;6311950;22;20006;-83
2022/03/12 09:41:03;;;;;;;13.63;8.13;;;11.50;99.90;;;;;;6311608;22;20049;-82
2022/03/12 09:43:30;;;;;;;12.27;7.72;;;11.60;99.90;;;;;;6311269;22;19998;-81
2022/03/12 09:45:57;;;;;;;15.65;8.52;;;11.70;99.90;;;;;;6339424;22;20018;-81
2022/03/12 09:48:24;;;;;;;12.75;7.85;;;11.70;99.90;;;;;;6307572;22;20500;-81
2022/03/12 09:50:50;;;;;;;14.32;7.63;;;11.90;99.90;;;;;;6311780;22;20011;-81
2022/03/12 09:53:22;;;;;;;14.73;7.90;;;11.90;99.90;;;;;;6337446;22;20007;-81
2022/03/12 09:55:48;;;;;;;14.70;7.97;;;12.10;99.90;;;;;;6312555;22;20015;-81
2022/03/12 09:58:17;;;;;;;13.30;7.70;;;12.20;99.90;;;;;;6310221;22;20018;-81
2022/03/12 10:00:44;;;;;;;13.73;7.20;;;12.20;99.90;;;;;;6311422;22;20404;-81
2022/03/12 10:03:16;;;;;;;15.30;7.00;;;12.40;99.90;;;;;;6338253;22;20025;-80
2022/03/12 10:05:55;;;;;;;14.90;7.57;;;12.50;99.90;;;;;;6287749;22;20014;-81
2022/03/12 10:08:32;;;;;;;;;;;;;;;;;;;;;
2022/03/12 10:10:59;;;;;;;11.73;6.47;;;12.70;99.90;;;;;;6280851;22;20094;-80
2022/03/12 10:13:26;;;;;;;10.60;6.60;;;12.60;99.90;;;;;;6329489;22;20025;-81
2022/03/12 10:16:09;;;;;;;11.65;6.82;;;12.70;99.90;;;;;;6313590;22;20102;-80
2022/03/12 10:18:36;;;;;;;11.65;6.85;;;12.80;99.90;;;;;;6339501;22;20015;-83
2022/03/12 10:21:04;;;;;;;12.02;7.50;;;12.80;99.90;;;;;;6340664;22;20068;-81
2022/03/12 10:23:29;;;;;;;12.20;7.22;;;12.90;99.90;;;;;;6313474;22;20436;-82
2022/03/12 10:25:57;;;;;;;11.55;7.40;;;13.00;99.90;;;;;;6312898;22;20034;-84
2022/03/12 10:28:36;;;;;;;12.07;7.30;;;13.10;99.90;;;;;;6339145;22;20081;-82
2022/03/12 10:31:05;;;;;;;;;;;13.10;99.90;;;;;;6314910;22;20417;-82
2022/03/12 10:33:31;;;;;;;13.60;6.97;;;13.00;99.90;;;;;;6339197;22;19911;-82
2022/03/12 10:36:10;;;;;;;10.25;6.50;;;13.00;99.90;;;;;;6340528;22;20013;-82
2022/03/12 10:38:44;;;;;;;10.63;6.93;;;13.00;99.90;;;;;;6313663;22;20015;-80
2022/03/12 10:41:11;;;;;;;12.07;7.57;;;12.90;99.90;;;;;;6313492;22;20019;-81
2022/03/12 10:43:48;;;;;;;13.35;6.97;;;12.80;99.90;;;;;;6341055;22;20042;-84
2022/03/12 10:46:29;;;;;;;14.90;7.50;;;12.90;99.90;;;;;;6313025;22;20022;-83
2022/03/12 10:48:58;;;;;;;14.45;7.20;;;13.00;99.90;;;;;;6340077;22;20011;-83
2022/03/12 10:51:28;;;;;;;14.18;7.85;;;13.00;99.90;;;;;;6340559;22;20046;-87
2022/03/12 10:54:07;;;;;;;11.57;7.68;;;13.10;99.90;;;;;;6313182;22;20049;-84
2022/03/12 10:56:52;;;;;;;13.52;7.97;;;13.20;99.90;;;;;;6286711;22;20013;-83
2022/03/12 10:59:29;;;;;;;13.32;7.75;;;13.30;99.90;;;;;;6288312;22;20387;-85
2022/03/12 20:20:47;;;;;;;23.73;14.43;;;10.30;99.90;;;;;;6335492;22;20026;-85
2022/03/12 20:23:13;;;;;;;25.70;14.90;;;10.30;99.90;;;;;;6285966;22;20322;-83
2022/03/12 20:25:40;;;;;;;23.60;14.18;;;10.30;99.90;;;;;;6286064;22;20013;-79
2022/03/12 20:28:08;;;;;;;24.75;14.93;;;10.30;99.90;;;;;;6286406;22;20086;-86
2022/03/12 20:30:35;;;;;;;22.80;14.27;;;10.20;99.90;;;;;;6310132;22;20021;-81
2022/03/12 20:33:01;;;;;;;25.08;15.07;;;10.20;99.90;;;;;;6339951;22;20014;-84
2022/03/12 20:35:27;;;;;;;21.02;12.85;;;10.20;99.90;;;;;;6339865;22;20381;-84
2022/03/12 20:37:52;;;;;;;26.80;14.73;;;10.10;99.90;;;;;;6311753;22;20011;-85
2022/03/12 20:40:18;;;;;;;20.98;13.63;;;10.10;99.90;;;;;;6285780;22;20085;-83
2022/03/12 20:42:44;;;;;;;24.52;16.17;;;10.10;99.90;;;;;;6311336;22;20081;-81
2022/03/12 20:45:15;;;;;;;25.83;17.83;;;10.10;99.90;;;;;;6286023;22;20011;-82
2022/03/12 20:47:44;;;;;;;24.23;15.68;;;10.00;99.90;;;;;;6260066;22;20017;-82
2022/03/12 20:50:11;;;;;;;26.70;17.20;;;10.00;99.90;;;;;;6310576;22;20022;-83
2022/03/12 20:52:37;;;;;;;22.25;14.63;;;10.00;99.90;;;;;;6338254;22;20003;-84
2022/03/12 20:55:06;;;;;;;21.63;12.07;;;10.00;99.90;;;;;;6339250;22;20014;-85
2022/03/12 20:57:32;;;;;;;21.00;12.13;;;9.90;99.90;;;;;;6311283;22;20091;-84
2022/03/12 20:59:59;;;;;;;21.17;13.27;;;9.80;99.90;;;;;;6311464;22;20375;-83
2022/03/12 21:02:26;;;;;;;26.02;15.98;;;9.70;99.90;;;;;;6310852;22;20068;-85
2022/03/12 21:04:52;;;;;;;25.42;14.15;;;9.70;99.90;;;;;;6312586;22;20053;-83
2022/03/12 21:07:18;;;;;;;22.60;13.07;;;9.60;99.90;;;;;;6285362;22;20019;-83
2022/03/12 21:09:46;;;;;;;23.33;13.35;;;9.60;99.90;;;;;;6285490;22;20463;-83
2022/03/12 21:12:12;;;;;;;20.50;13.02;;;9.60;99.90;;;;;;6311251;22;20019;-84
2022/03/12 21:14:38;;;;;;;22.80;13.15;;;9.60;99.90;;;;;;6311298;22;20013;-85
2022/03/12 21:17:06;;;;;;;28.13;14.68;;;9.50;99.90;;;;;;6285450;22;20393;-83
2022/03/12 21:19:31;;;;;;;22.20;13.88;;;9.60;99.90;;;;;;6285131;22;20019;-83
2022/03/12 21:21:57;;;;;;;25.20;15.35;;;9.60;99.90;;;;;;6338262;22;20094;-86
2022/03/12 21:24:25;;;;;;;24.40;15.80;;;9.50;99.90;;;;;;6311075;22;20026;-83
2022/03/12 21:26:55;;;;;;;33.42;17.20;;;9.50;99.90;;;;;;6338916;22;20377;-85
2022/03/12 21:29:22;;;;;;;28.63;18.75;;;9.50;99.90;;;;;;6309784;22;20094;-84
2022/03/12 21:31:52;;;;;;;24.80;15.65;;;9.50;99.90;;;;;;6287159;22;20018;-85
2022/03/12 21:34:21;;;;;;;26.27;15.02;;;9.50;99.90;;;;;;6311065;22;20018;-84
2022/03/12 21:36:48;;;;;;;25.25;14.60;;;9.50;99.90;;;;;;6310869;22;20064;-85
2022/03/12 21:39:14;;;;;;;26.70;14.90;;;9.50;99.90;;;;;;6284935;22;20015;-83
2022/03/12 21:41:42;;;;;;;29.05;16.45;;;9.50;99.90;;;;;;6339194;22;20019;-82
2022/03/12 21:44:13;;;;;;;30.48;19.80;;;9.50;99.90;;;;;;6339536;22;20096;-83
2022/03/12 21:46:41;;;;;;;32.58;22.13;;;9.40;99.90;;;;;;6339560;22;20011;-84
2022/03/12 21:49:13;;;;;;;29.33;18.98;;;9.50;99.90;;;;;;6312386;22;20007;-83
2022/03/12 21:51:43;;;;;;;29.85;17.55;;;9.40;99.90;;;;;;6311265;22;20015;-84
2022/03/12 21:54:08;;;;;;;27.42;17.70;;;9.40;99.90;;;;;;6286694;22;20010;-84
2022/03/12 21:56:34;;;;;;;27.52;16.85;;;9.40;99.90;;;;;;6338861;22;20337;-83
2022/03/12 21:59:00;;;;;;;28.10;17.75;;;9.30;99.90;;;;;;6286050;22;20014;-83
2022/03/12 22:01:28;;;;;;;28.52;17.90;;;9.30;99.90;;;;;;6286999;22;20019;-83
2022/03/12 22:03:53;;;;;;;26.95;15.57;;;9.30;99.90;;;;;;6287629;22;20018;-83
2022/03/12 22:06:21;;;;;;;26.85;16.55;;;9.30;99.90;;;;;;6287478;22;20322;-84
2022/03/12 22:08:47;;;;;;;26.02;16.35;;;9.20;99.90;;;;;;6286915;22;20006;-83
2022/03/12 22:11:15;;;;;;;29.05;16.48;;;9.20;99.90;;;;;;6340171;22;20053;-83
2022/03/12 22:13:41;;;;;;;29.05;16.55;;;9.20;99.90;;;;;;6340989;22;20079;-84
2022/03/12 22:16:07;;;;;;;35.75;19.13;;;9.20;99.90;;;;;;6312643;22;20066;-84
2022/03/12 22:18:34;;;;;;;34.53;20.92;;;9.20;99.90;;;;;;6313062;22;20018;-83
2022/03/12 22:21:02;;;;;;;26.48;15.80;;;9.10;99.90;;;;;;6312157;22;20405;-82
2022/03/12 22:23:29;;;;;;;27.85;15.80;;;9.10;99.90;;;;;;6313313;22;20014;-81
2022/03/12 22:25:57;;;;;;;23.95;14.07;;;9.10;99.90;;;;;;6339606;22;20068;-82
2022/03/12 22:28:24;;;;;;;22.25;14.05;;;9.10;99.90;;;;;;6340139;22;20010;-83
2022/03/12 22:30:53;;;;;;;24.33;14.27;;;9.10;99.90;;;;;;6338869;22;20046;-85
2022/03/12 22:33:18;;;;;;;22.65;14.02;;;9.00;99.90;;;;;;6340690;22;20018;-84
2022/03/12 22:35:44;;;;;;;25.27;13.73;;;9.00;99.90;;;;;;6340396;22;20017;-83
2022/03/12 22:38:10;;;;;;;25.13;13.98;;;9.00;99.90;;;;;;6312884;22;20021;-83
2022/03/12 22:40:37;;;;;;;28.77;14.52;;;9.00;99.90;;;;;;6312541;22;20046;-83
2022/03/12 22:43:03;;;;;;;27.55;14.35;;;9.00;99.90;;;;;;6339914;22;20042;-83
2022/03/12 22:45:30;;;;;;;24.40;14.68;;;9.00;99.90;;;;;;6312307;22;20053;-83
2022/03/12 22:47:56;;;;;;;22.08;14.10;;;9.00;99.90;;;;;;6286157;22;20011;-83
2022/03/12 22:50:29;;;;;;;23.25;13.40;;;8.90;99.90;;;;;;6312249;22;20015;-83
2022/03/12 22:52:57;;;;;;;24.83;14.27;;;8.90;99.90;;;;;;6312099;22;20082;-82
2022/03/12 22:55:26;;;;;;;24.65;14.18;;;8.90;99.90;;;;;;6312562;22;20151;-82
2022/03/12 22:57:53;;;;;;;24.23;14.30;;;8.90;99.90;;;;;;6312124;22;20335;-83
2022/03/12 23:00:43;;;;;;;23.33;14.40;;;8.90;99.90;;;;;;6286247;22;20085;-83
2022/03/12 23:03:19;;;;;;;22.73;13.43;;;8.80;99.90;;;;;;6340034;22;20061;-84
2022/03/12 23:08:55;;;;;;;24.02;14.13;;;8.80;99.90;;;;;;6312297;22;20015;-83
2022/03/12 23:11:22;;;;;;;24.85;13.82;;;8.80;99.90;;;;;;6312118;22;20064;-83
2022/03/12 23:14:00;;;;;;;25.33;14.90;;;8.80;99.90;;;;;;6340417;22;20009;-82
2022/03/12 23:16:36;;;;;;;24.20;14.00;;;8.80;99.90;;;;;;6340045;22;20014;-83
2022/03/12 23:19:09;;;;;;;23.10;13.73;;;8.80;99.90;;;;;;6311942;22;20011;-80
2022/03/12 23:21:38;;;;;;;24.60;13.93;;;8.80;99.90;;;;;;6311767;22;20011;-81
2022/03/12 23:24:09;;;;;;;24.23;13.73;;;8.80;99.90;;;;;;6312098;22;20017;-81
2022/03/12 23:26:37;;;;;;;24.30;13.82;;;8.80;99.90;;;;;;6312012;22;20441;-81
2022/03/12 23:29:15;;;;;;;23.42;14.00;;;8.80;99.90;;;;;;6286862;22;20046;-82
2022/03/12 23:32:01;;;;;;;24.45;13.68;;;8.80;99.90;;;;;;6286238;22;20072;-82
2022/03/12 23:34:27;;;;;;;;;;;8.80;99.90;;;;;;6340256;22;20021;-81
2022/03/12 23:36:54;;;;;;;22.13;13.65;;;8.80;99.90;;;;;;6286351;22;19920;-82
2022/03/12 23:39:31;;;;;;;23.00;12.85;;;8.80;99.90;;;;;;6341163;22;20078;-82
2022/03/12 23:41:57;;;;;;;23.23;14.35;;;8.80;99.90;;;;;;6311298;22;20019;-83
2022/03/12 23:44:26;;;;;;;24.42;13.85;;;8.80;99.90;;;;;;6313143;22;20018;-82
2022/03/12 23:46:58;;;;;;;28.92;14.60;;;8.80;99.90;;;;;;6339462;22;20011;-82
2022/03/12 23:49:30;;;;;;;30.17;13.98;;;8.80;99.90;;;;;;6339638;22;20014;-83
2022/03/12 23:52:21;;;;;;;23.50;13.45;;;8.80;99.90;;;;;;6285825;22;20293;-82
2022/03/12 23:54:59;;;;;;;22.10;13.48;;;8.80;99.90;;;;;;6339797;22;20007;-83
2022/03/12 23:57:29;;;;;;;24.00;14.32;;;8.80;99.90;;;;;;6311678;22;20389;-83
